Time;durP1;ratioP1;P1;durP2;ratioP2;P2;SDS_P1;SDS_P2;PMS_P1;PMS_P2;Temp;Humidity;BMP_temperature;BMP_pressure;BME280_temperature;BME280_humidity;BME280_pressure;Samples;Min_cycle;Max_cycle;Signal;HPM_P1;HPM_P2
2021/09/07 00:00:28;;;;;;;26.20;21.85;;;;;;;;;;5074820;28;20056;-65
2021/09/07 00:02:54;;;;;;;26.77;21.88;;;;;;;;;;5074882;28;20059;-64
2021/09/07 00:05:20;;;;;;;30.40;23.83;;;;;;;;;;5074042;28;20024;-64
2021/09/07 00:07:46;;;;;;;25.83;21.70;;;;;;;;;;5074418;28;20032;-64
2021/09/07 00:10:14;;;;;;;25.20;21.88;;;;;;;;;;5074102;28;20035;-64
2021/09/07 00:12:40;;;;;;;28.27;22.90;;;;;;;;;;5056545;28;20024;-64
2021/09/07 00:15:07;;;;;;;27.40;22.55;;;;;;;;;;5054398;28;20043;-66
2021/09/07 00:17:33;;;;;;;25.85;22.17;;;;;;;;;;5074353;28;20029;-64
2021/09/07 00:19:59;;;;;;;28.10;22.05;;;;;;;;;;5056467;28;20021;-64
2021/09/07 00:22:25;;;;;;;28.73;22.45;;;;;;;;;;5074143;28;20044;-64
2021/09/07 00:24:51;;;;;;;29.13;22.25;;;;;;;;;;5056137;28;20012;-65
2021/09/07 00:27:17;;;;;;;27.50;22.17;;;;;;;;;;5074409;28;20392;-64
2021/09/07 00:29:44;;;;;;;26.58;22.15;;;;;;;;;;5056431;28;20024;-65
2021/09/07 00:32:09;;;;;;;25.60;20.67;;;;;;;;;;5054521;28;20412;-64
2021/09/07 00:34:36;;;;;;;26.25;21.52;;;;;;;;;;5073745;28;20028;-65
2021/09/07 00:37:02;;;;;;;27.40;22.27;;;;;;;;;;5074019;28;20102;-65
2021/09/07 00:39:28;;;;;;;27.35;21.73;;;;;;;;;;5073857;28;20395;-64
2021/09/07 00:41:54;;;;;;;25.65;20.23;;;;;;;;;;5056217;28;20021;-64
2021/09/07 00:44:23;;;;;;;28.35;21.75;;;;;;;;;;5073529;28;20024;-64
2021/09/07 00:46:49;;;;;;;;;;;;;;;;;;5071214;28;20107;-64
2021/09/07 00:49:15;;;;;;;26.98;20.98;;;;;;;;;;5053875;28;19908;-64
2021/09/07 00:51:42;;;;;;;27.60;20.30;;;;;;;;;;5036046;28;20549;-64
2021/09/07 00:54:09;;;;;;;25.65;21.65;;;;;;;;;;5035675;28;20021;-64
2021/09/07 00:56:35;;;;;;;26.63;22.17;;;;;;;;;;5053756;28;20024;-64
2021/09/07 00:59:02;;;;;;;28.50;22.75;;;;;;;;;;5052618;28;20040;-65
2021/09/07 01:01:28;;;;;;;26.75;21.30;;;;;;;;;;5053426;28;20025;-64
2021/09/07 01:03:54;;;;;;;26.90;21.63;;;;;;;;;;5036427;28;20435;-64
2021/09/07 01:06:23;;;;;;;28.25;21.25;;;;;;;;;;5053330;28;20043;-64
2021/09/07 01:08:49;;;;;;;29.38;22.35;;;;;;;;;;5053478;28;20036;-65
2021/09/07 01:11:18;;;;;;;29.27;22.33;;;;;;;;;;5053228;28;20025;-64
2021/09/07 01:13:45;;;;;;;29.70;23.75;;;;;;;;;;5053028;28;20415;-65
2021/09/07 01:16:11;;;;;;;27.08;22.33;;;;;;;;;;5035518;28;20404;-64
2021/09/07 01:18:37;;;;;;;27.92;21.77;;;;;;;;;;5035291;28;20021;-64
2021/09/07 01:21:09;;;;;;;26.33;21.92;;;;;;;;;;5036559;28;20025;-65
2021/09/07 01:23:35;;;;;;;26.52;21.23;;;;;;;;;;5034774;28;20111;-64
2021/09/07 01:26:01;;;;;;;28.23;23.15;;;;;;;;;;5053018;28;20025;-66
2021/09/07 01:28:29;;;;;;;27.92;21.90;;;;;;;;;;5035323;28;20036;-64
2021/09/07 01:30:55;;;;;;;26.83;22.35;;;;;;;;;;5035365;28;20466;-64
2021/09/07 01:33:21;;;;;;;28.08;22.15;;;;;;;;;;5052979;28;20064;-64
2021/09/07 01:35:47;;;;;;;28.60;22.90;;;;;;;;;;5052837;28;20032;-65
2021/09/07 01:38:13;;;;;;;31.08;24.30;;;;;;;;;;5036427;28;20481;-64
2021/09/07 01:40:39;;;;;;;29.98;24.55;;;;;;;;;;5035082;28;20104;-65
2021/09/07 01:43:05;;;;;;;26.92;22.95;;;;;;;;;;5052981;28;20048;-64
2021/09/07 01:45:31;;;;;;;27.80;23.42;;;;;;;;;;5034739;28;20041;-64
2021/09/07 01:47:57;;;;;;;27.52;22.67;;;;;;;;;;5067011;28;20020;-64
2021/09/07 01:50:23;;;;;;;30.17;22.70;;;;;;;;;;5072453;28;20055;-64
2021/09/07 01:52:49;;;;;;;45.58;38.97;;;;;;;;;;5055268;28;20035;-65
2021/09/07 01:55:15;;;;;;;55.13;48.40;;;;;;;;;;5070991;28;20021;-64
2021/09/07 01:57:41;;;;;;;31.38;25.25;;;;;;;;;;5054834;28;20021;-65
2021/09/07 02:00:08;;;;;;;48.75;40.03;;;;;;;;;;5072747;28;20017;-65
2021/09/07 02:02:33;;;;;;;36.72;30.80;;;;;;;;;;5071243;28;20104;-65
2021/09/07 02:04:59;;;;;;;39.05;34.40;;;;;;;;;;5054392;28;20060;-64
2021/09/07 02:07:25;;;;;;;36.75;30.58;;;;;;;;;;5072503;28;20028;-64
2021/09/07 02:09:52;;;;;;;34.63;28.33;;;;;;;;;;5072538;28;20033;-64
2021/09/07 02:12:18;;;;;;;32.92;26.60;;;;;;;;;;5054326;28;20115;-64
2021/09/07 02:14:44;;;;;;;35.17;28.25;;;;;;;;;;5072170;28;20028;-65
2021/09/07 02:17:10;;;;;;;30.75;25.52;;;;;;;;;;5072280;28;20463;-64
2021/09/07 02:19:36;;;;;;;26.88;23.35;;;;;;;;;;5052661;28;20032;-63
2021/09/07 02:22:02;;;;;;;32.25;25.27;;;;;;;;;;5054478;28;20029;-64
2021/09/07 02:24:28;;;;;;;29.38;24.75;;;;;;;;;;5072043;28;20025;-64
2021/09/07 02:26:54;;;;;;;29.45;23.75;;;;;;;;;;5054155;28;20029;-64
2021/09/07 02:29:20;;;;;;;28.58;24.77;;;;;;;;;;5054548;28;20488;-65
2021/09/07 02:31:46;;;;;;;32.53;24.48;;;;;;;;;;5054379;28;20040;-64
2021/09/07 02:34:12;;;;;;;27.38;23.13;;;;;;;;;;5072023;28;20033;-64
2021/09/07 02:36:38;;;;;;;29.80;25.15;;;;;;;;;;5053542;28;20028;-64
2021/09/07 02:39:05;;;;;;;29.23;23.60;;;;;;;;;;5052555;28;20016;-64
2021/09/07 02:41:31;;;;;;;27.45;23.50;;;;;;;;;;5053947;28;20028;-63
2021/09/07 02:43:56;;;;;;;28.08;23.45;;;;;;;;;;5054030;28;20028;-64
2021/09/07 02:46:25;;;;;;;28.17;23.05;;;;;;;;;;5068532;28;20492;-63
2021/09/07 02:48:53;;;;;;;;;;;;;;;;;;5053695;28;20060;-64
2021/09/07 02:51:19;;;;;;;28.50;23.98;;;;;;;;;;5071979;28;19905;-64
2021/09/07 02:53:45;;;;;;;27.88;22.85;;;;;;;;;;5053975;28;20411;-63
2021/09/07 02:56:11;;;;;;;27.67;22.75;;;;;;;;;;5052140;28;20032;-64
2021/09/07 02:58:37;;;;;;;29.30;23.60;;;;;;;;;;5063321;28;20060;-64
2021/09/07 03:01:03;;;;;;;28.45;23.38;;;;;;;;;;5051977;28;20543;-64
2021/09/07 03:03:29;;;;;;;31.85;24.80;;;;;;;;;;5051396;28;20374;-62
2021/09/07 03:05:58;;;;;;;35.10;23.60;;;;;;;;;;5051872;28;20086;-63
2021/09/07 03:08:24;;;;;;;27.75;22.77;;;;;;;;;;5052036;28;20548;-63
2021/09/07 03:10:50;;;;;;;29.10;23.83;;;;;;;;;;5051701;28;20096;-64
2021/09/07 03:13:18;;;;;;;30.65;25.08;;;;;;;;;;5034949;28;20124;-63
2021/09/07 03:15:46;;;;;;;29.42;24.77;;;;;;;;;;5069221;28;20104;-63
2021/09/07 03:18:12;;;;;;;30.15;24.98;;;;;;;;;;5071965;28;20568;-64
2021/09/07 03:20:38;;;;;;;30.23;24.38;;;;;;;;;;5071714;28;20056;-64
2021/09/07 03:23:04;;;;;;;31.48;25.65;;;;;;;;;;5055164;28;20039;-65
2021/09/07 03:25:30;;;;;;;26.42;23.08;;;;;;;;;;5075223;28;20059;-63
2021/09/07 03:27:56;;;;;;;29.05;23.98;;;;;;;;;;5075609;28;20473;-64
2021/09/07 03:30:23;;;;;;;29.13;23.48;;;;;;;;;;5055901;28;20396;-64
2021/09/07 03:32:49;;;;;;;29.30;24.58;;;;;;;;;;5075350;28;20013;-64
2021/09/07 03:35:15;;;;;;;31.65;24.85;;;;;;;;;;5057414;28;20384;-64
2021/09/07 03:37:42;;;;;;;27.83;24.02;;;;;;;;;;5057907;28;20123;-65
2021/09/07 03:40:08;;;;;;;30.77;23.10;;;;;;;;;;5073796;28;20105;-64
2021/09/07 03:42:34;;;;;;;28.33;23.40;;;;;;;;;;5036922;28;20066;-64
2021/09/07 03:45:07;;;;;;;39.83;26.17;;;;;;;;;;5071070;28;20052;-64
2021/09/07 03:47:33;;;;;;;29.20;24.00;;;;;;;;;;5066171;28;20389;-64
2021/09/07 03:49:59;;;;;;;30.67;25.35;;;;;;;;;;5037174;28;20443;-64
2021/09/07 03:52:25;;;;;;;30.58;26.10;;;;;;;;;;5054997;28;20024;-64
2021/09/07 03:54:51;;;;;;;28.73;23.95;;;;;;;;;;5036682;28;20040;-63
2021/09/07 03:57:17;;;;;;;31.85;23.80;;;;;;;;;;5074507;28;20035;-64
2021/09/07 03:59:43;;;;;;;34.47;24.52;;;;;;;;;;5056957;28;20024;-64
2021/09/07 04:02:09;;;;;;;27.60;23.85;;;;;;;;;;5056988;28;20115;-63
2021/09/07 04:04:35;;;;;;;31.05;24.73;;;;;;;;;;5054828;28;20448;-64
2021/09/07 04:07:01;;;;;;;30.88;25.60;;;;;;;;;;5074614;28;20020;-64
2021/09/07 04:09:27;;;;;;;31.50;25.33;;;;;;;;;;5074424;28;20029;-65
2021/09/07 04:11:53;;;;;;;28.98;24.77;;;;;;;;;;5053169;28;20028;-64
2021/09/07 04:14:19;;;;;;;31.60;26.10;;;;;;;;;;5036352;28;20090;-64
2021/09/07 04:16:45;;;;;;;30.55;25.42;;;;;;;;;;5036613;28;20032;-64
2021/09/07 04:19:11;;;;;;;31.42;25.02;;;;;;;;;;5054284;28;20025;-64
2021/09/07 04:21:37;;;;;;;29.88;24.92;;;;;;;;;;5037964;28;20033;-64
2021/09/07 04:24:04;;;;;;;32.25;25.33;;;;;;;;;;5054164;28;20105;-64
2021/09/07 04:26:30;;;;;;;31.65;26.63;;;;;;;;;;5054209;28;20032;-64
2021/09/07 04:28:57;;;;;;;30.38;25.20;;;;;;;;;;5036163;28;20104;-64
2021/09/07 04:31:23;;;;;;;29.52;25.35;;;;;;;;;;5054338;28;20043;-64
2021/09/07 04:33:49;;;;;;;31.60;25.77;;;;;;;;;;5053992;28;20425;-64
2021/09/07 04:36:15;;;;;;;31.42;25.35;;;;;;;;;;5054892;28;20056;-64
2021/09/07 04:38:41;;;;;;;32.35;26.08;;;;;;;;;;5036452;28;20104;-64
2021/09/07 04:41:07;;;;;;;30.80;26.17;;;;;;;;;;5036117;28;20025;-64
2021/09/07 04:43:33;;;;;;;31.35;25.35;;;;;;;;;;5035905;28;20035;-64
2021/09/07 04:45:59;;;;;;;32.67;24.98;;;;;;;;;;5035792;28;20032;-64
2021/09/07 04:48:27;;;;;;;32.67;26.45;;;;;;;;;;5035712;28;20025;-64
2021/09/07 04:50:53;;;;;;;36.17;25.33;;;;;;;;;;5053616;28;20029;-64
2021/09/07 04:53:19;;;;;;;32.15;25.10;;;;;;;;;;5037010;28;20333;-63
2021/09/07 04:55:47;;;;;;;37.20;26.10;;;;;;;;;;5035510;28;20424;-64
2021/09/07 04:58:13;;;;;;;37.10;26.88;;;;;;;;;;5055563;28;20016;-64
2021/09/07 05:00:39;;;;;;;41.15;26.35;;;;;;;;;;5073742;28;20103;-65
2021/09/07 05:03:05;;;;;;;39.70;25.58;;;;;;;;;;5052398;28;20013;-64
2021/09/07 05:05:31;;;;;;;30.80;24.52;;;;;;;;;;5064450;28;20051;-63
2021/09/07 05:07:58;;;;;;;28.98;25.38;;;;;;;;;;5065018;28;20044;-63
2021/09/07 05:10:24;;;;;;;30.92;25.27;;;;;;;;;;5071286;28;20025;-64
2021/09/07 05:12:50;;;;;;;34.25;25.00;;;;;;;;;;5055616;28;20031;-63
2021/09/07 05:15:16;;;;;;;29.83;24.63;;;;;;;;;;5072887;22;20040;-63
2021/09/07 05:17:44;;;;;;;29.85;24.73;;;;;;;;;;5071165;28;20032;-64
2021/09/07 05:20:10;;;;;;;35.75;26.00;;;;;;;;;;5070752;28;20023;-64
2021/09/07 05:22:36;;;;;;;32.63;26.10;;;;;;;;;;5072172;28;20447;-63
2021/09/07 05:25:05;;;;;;;30.75;25.58;;;;;;;;;;5087716;28;20039;-61
2021/09/07 05:27:31;;;;;;;;;;;;;;;;;;5072353;28;20027;-63
2021/09/07 05:29:57;;;;;;;32.78;25.27;;;;;;;;;;5051712;28;19912;-63
2021/09/07 05:32:23;;;;;;;30.27;24.90;;;;;;;;;;5051846;28;20025;-62
2021/09/07 05:34:49;;;;;;;31.77;24.52;;;;;;;;;;5051711;28;20461;-64
2021/09/07 05:37:15;;;;;;;30.98;25.45;;;;;;;;;;5058782;28;20035;-61
2021/09/07 05:39:41;;;;;;;32.60;25.85;;;;;;;;;;5070382;28;20021;-62
2021/09/07 05:42:06;;;;;;;29.92;24.70;;;;;;;;;;5070445;28;20027;-63
2021/09/07 05:44:32;;;;;;;30.75;24.95;;;;;;;;;;5044745;28;20044;-62
2021/09/07 05:47:01;;;;;;;35.75;24.65;;;;;;;;;;5030055;28;20485;-63
2021/09/07 05:49:27;;;;;;;27.65;24.27;;;;;;;;;;5032225;28;20056;-62
2021/09/07 05:51:53;;;;;;;31.77;24.55;;;;;;;;;;5030302;28;20489;-61
2021/09/07 05:54:19;;;;;;;30.20;24.38;;;;;;;;;;5030830;28;20068;-63
2021/09/07 05:56:45;;;;;;;32.42;24.55;;;;;;;;;;5029455;28;20032;-61
2021/09/07 05:59:12;;;;;;;30.80;24.83;;;;;;;;;;5032323;28;20026;-62
2021/09/07 06:01:38;;;;;;;30.17;24.40;;;;;;;;;;5030969;28;20021;-62
2021/09/07 06:04:04;;;;;;;29.13;25.35;;;;;;;;;;5041626;28;20024;-63
2021/09/07 06:06:30;;;;;;;32.17;24.30;;;;;;;;;;5051040;28;20048;-62
2021/09/07 06:08:56;;;;;;;30.58;25.70;;;;;;;;;;5051276;28;20203;-62
2021/09/07 06:11:22;;;;;;;34.80;26.10;;;;;;;;;;5049972;28;20029;-61
2021/09/07 06:13:48;;;;;;;32.20;26.77;;;;;;;;;;5050821;28;20051;-62
2021/09/07 06:16:14;;;;;;;28.63;25.25;;;;;;;;;;5047130;28;20096;-62
2021/09/07 06:18:40;;;;;;;29.80;23.88;;;;;;;;;;5029979;28;20032;-61
2021/09/07 06:21:06;;;;;;;30.13;24.70;;;;;;;;;;5031416;28;20017;-59
2021/09/07 06:23:32;;;;;;;28.30;24.73;;;;;;;;;;5030009;28;20017;-65
2021/09/07 06:25:59;;;;;;;29.88;24.40;;;;;;;;;;5033634;28;20053;-67
2021/09/07 06:28:26;;;;;;;30.05;24.58;;;;;;;;;;4690383;28;9999695;-68
2021/09/07 06:30:52;;;;;;;34.30;25.60;;;;;;;;;;5052723;28;20063;-66
2021/09/07 06:33:18;;;;;;;28.63;24.70;;;;;;;;;;5050816;28;20029;-68
2021/09/07 06:35:44;;;;;;;32.00;25.38;;;;;;;;;;5047910;28;20033;-67
2021/09/07 06:38:10;;;;;;;30.65;23.88;;;;;;;;;;5046082;28;20098;-68
2021/09/07 06:40:37;;;;;;;31.45;25.17;;;;;;;;;;5063611;28;20036;-69
2021/09/07 06:43:03;;;;;;;28.70;24.38;;;;;;;;;;5056776;28;20032;-68
2021/09/07 06:45:29;;;;;;;31.60;23.70;;;;;;;;;;5059594;28;20040;-69
2021/09/07 06:47:55;;;;;;;29.83;24.02;;;;;;;;;;5062064;28;20035;-67
2021/09/07 06:50:21;;;;;;;29.50;24.50;;;;;;;;;;5069607;28;20075;-68
2021/09/07 06:52:47;;;;;;;28.13;23.45;;;;;;;;;;5068927;28;20028;-67
2021/09/07 06:55:13;;;;;;;30.60;24.35;;;;;;;;;;5071753;28;20016;-67
2021/09/07 06:57:39;;;;;;;31.90;24.48;;;;;;;;;;5072657;28;20036;-68
2021/09/07 07:00:06;;;;;;;29.05;24.88;;;;;;;;;;5076093;28;20074;-68
2021/09/07 07:02:32;;;;;;;29.33;24.63;;;;;;;;;;5058759;28;20550;-67
2021/09/07 07:04:59;;;;;;;29.60;24.95;;;;;;;;;;5041102;28;20091;-67
2021/09/07 07:07:25;;;;;;;30.70;24.73;;;;;;;;;;5034901;28;20095;-67
2021/09/07 07:09:52;;;;;;;31.65;25.48;;;;;;;;;;5034798;28;20473;-67
2021/09/07 07:12:18;;;;;;;29.40;24.75;;;;;;;;;;5033381;28;20026;-67
2021/09/07 07:14:49;;;;;;;28.92;25.14;;;;;;;;;;4870656;28;10000348;-68
2021/09/07 07:17:15;;;;;;;29.73;25.35;;;;;;;;;;5051639;28;20299;-67
2021/09/07 07:19:41;;;;;;;29.98;24.67;;;;;;;;;;5042674;28;20104;-67
2021/09/07 07:22:08;;;;;;;29.13;24.30;;;;;;;;;;5030454;28;20394;-67
2021/09/07 07:24:34;;;;;;;30.17;25.60;;;;;;;;;;5029717;28;20137;-67
2021/09/07 07:27:01;;;;;;;31.30;26.23;;;;;;;;;;5030249;28;20029;-67
2021/09/07 07:29:27;;;;;;;30.02;24.60;;;;;;;;;;5030222;28;20030;-66
2021/09/07 07:31:53;;;;;;;42.58;25.95;;;;;;;;;;5043646;28;20026;-67
2021/09/07 07:34:19;;;;;;;34.28;27.00;;;;;;;;;;5039180;28;20031;-67
2021/09/07 07:36:45;;;;;;;30.23;25.67;;;;;;;;;;5040292;28;21101;-68
2021/09/07 07:39:11;;;;;;;33.38;26.52;;;;;;;;;;5031387;28;20048;-67
2021/09/07 07:41:37;;;;;;;33.90;27.05;;;;;;;;;;5031209;28;20104;-67
2021/09/07 07:44:03;;;;;;;34.45;27.52;;;;;;;;;;5048017;28;20082;-67
2021/09/07 07:46:29;;;;;;;32.35;26.17;;;;;;;;;;5059665;28;20093;-67
2021/09/07 07:48:55;;;;;;;38.45;25.77;;;;;;;;;;5069188;28;20548;-69
2021/09/07 07:51:21;;;;;;;30.55;25.35;;;;;;;;;;5071176;28;20036;-68
2021/09/07 07:53:47;;;;;;;37.72;26.38;;;;;;;;;;5070804;28;20025;-69
2021/09/07 07:56:13;;;;;;;30.55;25.98;;;;;;;;;;5044722;28;20112;-68
2021/09/07 07:58:39;;;;;;;31.67;25.75;;;;;;;;;;5031347;28;20088;-69
2021/09/07 08:01:05;;;;;;;37.10;27.02;;;;;;;;;;5031252;28;20543;-68
2021/09/07 08:03:31;;;;;;;31.90;25.25;;;;;;;;;;5046296;28;20025;-69
2021/09/07 08:05:58;;;;;;;30.95;25.67;;;;;;;;;;5049951;28;20025;-69
2021/09/07 08:08:24;;;;;;;33.05;25.95;;;;;;;;;;5049687;28;20543;-68
2021/09/07 08:10:50;;;;;;;37.17;25.25;;;;;;;;;;5049625;28;20035;-68
2021/09/07 08:13:16;;;;;;;41.45;25.95;;;;;;;;;;5049397;28;20108;-68
2021/09/07 08:15:42;;;;;;;36.00;25.55;;;;;;;;;;5048900;28;20033;-70
2021/09/07 08:18:08;;;;;;;35.70;24.83;;;;;;;;;;5051269;28;20535;-69
2021/09/07 08:20:37;;;;;;;34.03;25.67;;;;;;;;;;5049397;28;20080;-66
2021/09/07 08:23:03;;;;;;;;;;;;;;;;;;5053963;28;20485;-66
2021/09/07 08:25:29;;;;;;;36.63;25.40;;;;;;;;;;5050347;28;19912;-66
2021/09/07 08:27:55;;;;;;;35.97;27.33;;;;;;;;;;5058722;28;20017;-67
2021/09/07 08:30:21;;;;;;;33.10;26.42;;;;;;;;;;5054424;28;20033;-67
2021/09/07 08:32:48;;;;;;;36.05;26.85;;;;;;;;;;5049397;28;20029;-68
2021/09/07 08:35:14;;;;;;;33.17;27.25;;;;;;;;;;5048987;28;20032;-66
2021/09/07 08:37:40;;;;;;;34.47;26.35;;;;;;;;;;5050469;28;20041;-67
2021/09/07 08:40:07;;;;;;;31.40;26.10;;;;;;;;;;5065393;28;20127;-67
2021/09/07 08:42:34;;;;;;;33.95;26.08;;;;;;;;;;5068878;28;20020;-67
2021/09/07 08:45:01;;;;;;;41.42;28.63;;;;;;;;;;5070288;28;20036;-67
2021/09/07 08:47:27;;;;;;;41.83;28.55;;;;;;;;;;5057318;28;20025;-67
2021/09/07 08:49:53;;;;;;;31.75;26.88;;;;;;;;;;5050045;28;20025;-67
2021/09/07 08:52:22;;;;;;;30.38;26.27;;;;;;;;;;5048981;28;20028;-69
2021/09/07 08:54:48;;;;;;;31.95;25.70;;;;;;;;;;5049398;28;20024;-67
2021/09/07 08:57:13;;;;;;;28.52;25.30;;;;;;;;;;5050028;28;20059;-67
2021/09/07 08:59:39;;;;;;;30.48;25.73;;;;;;;;;;5050117;28;20069;-67
2021/09/07 09:02:16;;;;;;;31.13;25.42;;;;;;;;;;5048633;28;20504;-67
2021/09/07 09:04:46;;;;;;;31.75;25.42;;;;;;;;;;5050968;28;20020;-67
2021/09/07 09:07:24;;;;;;;31.67;24.85;;;;;;;;;;5040659;28;20025;-66
2021/09/07 09:09:51;;;;;;;27.13;24.13;;;;;;;;;;5028659;28;20044;-67
2021/09/07 09:12:17;;;;;;;29.52;25.45;;;;;;;;;;5051388;28;20024;-65
2021/09/07 09:14:47;;;;;;;31.38;25.38;;;;;;;;;;5058818;28;20028;-65
2021/09/07 09:17:19;;;;;;;33.10;25.90;;;;;;;;;;5057490;28;20021;-63
2021/09/07 09:19:51;;;;;;;30.20;25.40;;;;;;;;;;5054804;28;20021;-63
2021/09/07 09:22:18;;;;;;;29.02;25.55;;;;;;;;;;5059964;28;20021;-63
2021/09/07 09:24:44;;;;;;;29.55;24.65;;;;;;;;;;5065986;28;20021;-63
2021/09/07 09:27:11;;;;;;;26.92;23.98;;;;;;;;;;5058647;28;20531;-63
2021/09/07 09:29:39;;;;;;;27.25;23.60;;;;;;;;;;5049132;28;20024;-63
2021/09/07 09:32:05;;;;;;;26.50;22.77;;;;;;;;;;5049084;28;20028;-64
2021/09/07 09:34:32;;;;;;;28.27;22.98;;;;;;;;;;5055019;28;20035;-63
2021/09/07 09:36:58;;;;;;;24.98;22.27;;;;;;;;;;5058593;28;20079;-63
2021/09/07 09:39:39;;;;;;;25.23;22.00;;;;;;;;;;5068802;28;20439;-63
2021/09/07 09:42:06;;;;;;;27.00;23.10;;;;;;;;;;5071443;28;20582;-64
2021/09/07 09:44:32;;;;;;;26.13;23.33;;;;;;;;;;5063761;28;20082;-65
2021/09/07 09:46:58;;;;;;;28.92;23.90;;;;;;;;;;5051611;28;20029;-63
2021/09/07 09:49:28;;;;;;;28.13;24.53;;;;;;;;;;4701469;28;10001321;-65
2021/09/07 09:52:20;;;;;;;28.98;25.42;;;;;;;;;;5049412;28;20099;-64
2021/09/07 09:54:49;;;;;;;27.73;22.90;;;;;;;;;;5047174;28;20045;-62
2021/09/07 09:57:15;;;;;;;26.33;22.60;;;;;;;;;;5051467;28;20020;-64
2021/09/07 09:59:41;;;;;;;26.75;22.20;;;;;;;;;;5060686;28;20028;-62
2021/09/07 10:02:07;;;;;;;26.60;22.38;;;;;;;;;;5069591;28;20028;-64
2021/09/07 10:04:33;;;;;;;24.15;21.38;;;;;;;;;;5061452;28;20017;-64
2021/09/07 10:06:59;;;;;;;25.73;21.23;;;;;;;;;;5050145;28;20566;-64
2021/09/07 10:09:27;;;;;;;25.73;21.70;;;;;;;;;;5051159;28;20053;-65
2021/09/07 10:12:22;;;;;;;25.20;22.15;;;;;;;;;;5050741;28;20033;-65
2021/09/07 10:14:55;;;;;;;28.20;23.73;;;;;;;;;;5042018;28;20047;-64
2021/09/07 10:17:45;;;;;;;26.60;22.10;;;;;;;;;;5051380;28;20023;-65
2021/09/07 10:25:48;;;;;;;23.95;21.35;;;;;;;;;;4683072;28;9999952;-65
2021/09/07 10:28:28;;;;;;;27.15;22.02;;;;;;;;;;5027177;28;20029;-64
2021/09/07 10:30:58;;;;;;;26.50;21.67;;;;;;;;;;5028317;28;20027;-64
2021/09/07 10:33:39;;;;;;;25.58;21.58;;;;;;;;;;5028323;28;20031;-65
2021/09/07 10:36:11;;;;;;;24.38;21.20;;;;;;;;;;5026771;28;20029;-64
2021/09/07 10:38:38;;;;;;;24.92;22.27;;;;;;;;;;5028072;28;20025;-65
2021/09/07 10:41:05;;;;;;;26.48;21.30;;;;;;;;;;5028280;28;20106;-64
2021/09/07 10:43:47;;;;;;;27.50;22.08;;;;;;;;;;5029315;28;20105;-63
2021/09/07 10:46:13;;;;;;;26.60;21.73;;;;;;;;;;5028429;28;20401;-65
2021/09/07 10:48:39;;;;;;;28.33;22.02;;;;;;;;;;5028411;28;20032;-65
2021/09/07 10:51:05;;;;;;;24.33;21.73;;;;;;;;;;5028857;28;20033;-65
2021/09/07 10:53:31;;;;;;;25.70;21.90;;;;;;;;;;5042108;28;20118;-64
2021/09/07 10:56:16;;;;;;;25.08;20.48;;;;;;;;;;5047319;28;20040;-67
2021/09/07 10:58:41;;;;;;;23.95;20.70;;;;;;;;;;5047863;28;20473;-64
2021/09/07 11:01:31;;;;;;;23.95;21.13;;;;;;;;;;5039472;28;20079;-65
2021/09/07 11:04:15;;;;;;;24.45;20.90;;;;;;;;;;5024230;28;20033;-65
2021/09/07 11:06:41;;;;;;;26.40;22.13;;;;;;;;;;5047925;28;20074;-68
2021/09/07 11:09:26;;;;;;;24.92;20.70;;;;;;;;;;5046575;28;20464;-64
2021/09/07 11:11:52;;;;;;;24.90;22.27;;;;;;;;;;5048010;28;20024;-64
2021/09/07 11:14:18;;;;;;;26.05;22.08;;;;;;;;;;5066045;22;20029;-68
2021/09/07 11:16:57;;;;;;;22.80;20.40;;;;;;;;;;5108211;28;20046;-66
2021/09/07 11:19:23;;;;;;;24.00;21.30;;;;;;;;;;5098056;28;20050;-66
2021/09/07 11:21:49;;;;;;;27.25;22.58;;;;;;;;;;5092312;28;20476;-66
2021/09/07 11:24:19;;;;;;;25.65;22.50;;;;;;;;;;5104322;28;20032;-66
2021/09/07 11:26:46;;;;;;;24.83;22.23;;;;;;;;;;5080287;28;20035;-66
2021/09/07 11:29:12;;;;;;;25.88;23.08;;;;;;;;;;5079901;28;20035;-68
2021/09/07 11:31:38;;;;;;;25.65;22.98;;;;;;;;;;5077955;28;20536;-68
2021/09/07 11:34:14;;;;;;;25.05;22.35;;;;;;;;;;5074015;28;20111;-66
2021/09/07 11:36:41;;;;;;;25.58;22.88;;;;;;;;;;5086931;28;20035;-67
2021/09/07 11:39:18;;;;;;;26.30;23.52;;;;;;;;;;5081520;28;20024;-67
2021/09/07 11:41:44;;;;;;;26.77;22.50;;;;;;;;;;5081502;28;20062;-67
2021/09/07 11:44:10;;;;;;;26.40;23.17;;;;;;;;;;5080968;28;21021;-68
2021/09/07 11:46:38;;;;;;;25.17;22.58;;;;;;;;;;5083370;28;20028;-67
2021/09/07 11:49:04;;;;;;;25.98;23.38;;;;;;;;;;5081831;28;20031;-67
2021/09/07 11:51:31;;;;;;;26.45;23.65;;;;;;;;;;5082807;28;20029;-67
2021/09/07 11:53:58;;;;;;;27.30;24.55;;;;;;;;;;5083385;28;20043;-69
2021/09/07 11:56:26;;;;;;;26.08;23.33;;;;;;;;;;5080874;28;20571;-67
2021/09/07 11:58:52;;;;;;;25.52;23.05;;;;;;;;;;5082514;28;20047;-66
2021/09/07 12:01:20;;;;;;;27.13;24.42;;;;;;;;;;5072398;28;20048;-67
2021/09/07 12:04:01;;;;;;;26.45;23.85;;;;;;;;;;4740271;28;10000375;-67
2021/09/07 12:06:38;;;;;;;26.80;24.10;;;29.70;87.30;;;;;;5092567;28;20085;-64
2021/09/07 12:09:11;;;;;;;26.90;24.23;;;;;;;;;;5086358;28;20066;-66
2021/09/07 12:11:40;;;;;;;27.05;23.80;;;34.90;91.50;;;;;;5090669;28;20402;-67
2021/09/07 12:14:15;;;;;;;25.88;23.27;;;35.10;91.00;;;;;;5091239;28;20099;-67
2021/09/07 12:16:53;;;;;;;26.00;23.33;;;35.70;90.80;;;;;;5090981;28;20032;-67
2021/09/07 12:19:33;;;;;;;25.60;23.10;;;35.80;90.40;;;;;;5081282;28;20102;-66
2021/09/07 12:22:11;;;;;;;26.20;23.50;;;36.00;89.80;;;;;;5079703;28;20492;-66
2021/09/07 12:24:39;;;;;;;27.05;24.35;;;36.10;88.80;;;;;;5082794;28;20019;-67
2021/09/07 12:27:17;;;;;;;;;;;36.50;88.10;;;;;;5083601;28;20048;-67
2021/09/07 12:30:02;;;;;;;27.27;23.33;;;36.10;88.30;;;;;;5080557;28;19931;-67
2021/09/07 12:32:28;;;;;;;26.77;24.08;;;36.30;87.50;;;;;;5081602;28;20573;-67
2021/09/07 12:34:54;;;;;;;26.23;23.63;;;35.50;86.70;;;;;;5082609;28;20488;-66
2021/09/07 12:37:19;;;;;;;26.85;24.35;;;35.40;86.60;;;;;;5081105;28;20020;-66
2021/09/07 12:39:45;;;;;;;26.38;23.70;;;;;;;;;;5080545;28;20111;-66
2021/09/07 12:42:11;;;;;;;26.15;23.55;;;;;;;;;;5081901;28;20030;-66
2021/09/07 12:44:37;;;;;;;26.77;24.08;;;;;;;;;;5081782;28;20472;-66
2021/09/07 12:47:03;;;;;;;26.38;23.75;;;;;;;;;;5082640;28;20012;-66
2021/09/07 12:49:29;;;;;;;25.67;23.08;;;;;;;;;;5082379;28;20032;-67
2021/09/07 12:51:55;;;;;;;25.27;22.88;;;;;;;;;;5081926;28;20106;-67
2021/09/07 12:54:21;;;;;;;25.88;23.38;;;;;;;;;;5082726;28;20484;-66
2021/09/07 12:56:48;;;;;;;25.23;22.52;;;;;;;;;;5082080;28;20031;-67
2021/09/07 12:59:14;;;;;;;25.55;23.10;;;;;;;;;;5081557;28;20166;-66
2021/09/07 13:01:40;;;;;;;26.10;23.50;;;;;;;;;;5082200;28;20028;-66
2021/09/07 13:04:06;;;;;;;26.23;23.48;;;;;;;;;;5086436;28;20130;-67
2021/09/07 13:06:31;;;;;;;26.63;23.80;;;35.90;87.50;;;;;;5093121;28;20400;-66
2021/09/07 13:09:01;;;;;;;25.65;23.15;;;;;;;;;;5092077;28;20039;-67
2021/09/07 13:11:27;;;;;;;26.65;24.02;;;;;;;;;;5093204;28;20074;-66
2021/09/07 13:13:53;;;;;;;26.38;23.88;;;;;;;;;;5092688;28;20024;-66
2021/09/07 13:16:21;;;;;;;26.30;23.55;;;35.60;84.70;;;;;;5092743;28;20050;-66
2021/09/07 13:18:48;;;;;;;25.52;22.92;;;34.70;84.10;;;;;;5091981;28;20435;-66
2021/09/07 13:21:14;;;;;;;24.83;22.43;;;35.00;84.90;;;;;;5090911;28;20107;-66
2021/09/07 13:23:41;;;;;;;24.77;22.40;;;34.80;87.80;;;;;;5091237;28;20778;-66
2021/09/07 13:26:07;;;;;;;27.27;22.77;;;34.50;86.50;;;;;;5092569;28;20567;-66
2021/09/07 13:28:32;;;;;;;26.98;24.13;;;34.80;83.80;;;;;;5092882;28;20031;-67
2021/09/07 13:30:58;;;;;;;24.70;22.13;;;35.10;84.80;;;;;;5091171;28;20023;-65
2021/09/07 13:33:23;;;;;;;24.88;22.40;;;35.20;85.80;;;;;;5092386;28;20047;-66
2021/09/07 13:35:49;;;;;;;24.13;21.73;;;35.10;82.20;;;;;;5077188;28;20091;-65
2021/09/07 13:38:17;;;;;;;26.25;23.45;;;35.50;84.10;;;;;;5072134;28;20058;-65
2021/09/07 13:40:45;;;;;;;25.92;23.40;;;;;;;;;;5070991;28;20031;-65
2021/09/07 13:43:11;;;;;;;26.55;23.85;;;;;;;;;;5072321;28;20031;-65
2021/09/07 13:45:37;;;;;;;25.90;23.30;;;;;;;;;;5072141;28;20027;-63
2021/09/07 13:48:04;;;;;;;26.05;23.45;;;;;;;;;;5074417;28;20129;-65
2021/09/07 13:50:29;;;;;;;24.83;22.23;;;35.20;83.50;;;;;;5075765;28;20078;-64
2021/09/07 13:52:55;;;;;;;25.13;22.52;;;;;;;;;;5079056;28;20063;-65
2021/09/07 13:55:21;;;;;;;26.05;23.42;;;33.60;87.00;;;;;;5081950;28;20047;-65
2021/09/07 13:57:47;;;;;;;24.67;22.27;;;;;;;;;;5082129;28;20020;-66
2021/09/07 14:00:13;;;;;;;25.90;23.30;;;;;;;;;;5079199;28;20086;-65
2021/09/07 14:02:43;;;;;;;25.50;23.00;;;;;;;;;;5079745;28;20028;-65
2021/09/07 14:05:10;;;;;;;25.63;23.05;;;;;;;;;;5078250;28;20017;-65
2021/09/07 14:07:36;;;;;;;26.67;23.17;;;;;;;;;;5082177;28;20032;-65
2021/09/07 14:10:02;;;;;;;25.73;23.25;;;35.40;83.80;;;;;;5080565;28;20027;-66
2021/09/07 14:12:28;;;;;;;26.17;23.58;;;;;;;;;;5080166;28;20051;-67
2021/09/07 14:14:54;;;;;;;25.05;22.65;;;;;;;;;;5081772;28;20024;-65